Time,TemperatureF,DewpointF,PressureIn,WindDirection,WindDirectionDegrees,WindSpeedMPH,WindSpeedGustMPH,Humidity,HourlyPrecipIn,Conditions,Clouds,dailyrainin,SoftwareType,DateUTC
2013-11-03 00:05:00,42.7,20.0,30.06,WNW,294,3.0,7.0,40,0.00,,,0.00,weatherlink.com 1.10,2013-11-03 07:05:00,
2013-11-03 00:20:00,46.0,17.0,30.06,West,259,3.0,7.0,32,0.00,,,0.00,weatherlink.com 1.10,2013-11-03 07:20:00,
2013-11-03 00:35:00,45.7,17.0,30.05,WNW,292,2.0,8.0,32,0.00,,,0.00,weatherlink.com 1.10,2013-11-03 07:35:00,
2013-11-03 00:50:00,43.7,17.0,30.05,West,266,3.0,9.0,34,0.00,,,0.00,weatherlink.com 1.10,2013-11-03 07:50:00,
2013-11-03 01:05:00,40.8,17.0,30.05,West,278,0.0,1.0,39,0.00,,,0.00,weatherlink.com 1.10,2013-11-03 08:05:00,
2013-11-03 01:20:00,37.9,18.0,30.05,NNW,331,0.0,1.0,45,0.00,,,0.00,weatherlink.com 1.10,2013-11-03 08:20:00,
2013-11-03 01:35:00,40.7,16.0,30.05,WSW,246,3.0,5.0,37,0.00,,,0.00,weatherlink.com 1.10,2013-11-03 08:35:00,
2013-11-03 01:50:00,42.4,16.0,30.04,NNW,340,1.0,3.0,35,0.00,,,0.00,weatherlink.com 1.10,2013-11-03 08:50:00,
2013-11-03 02:05:00,35.5,18.0,30.03,NNW,327,1.0,2.0,49,0.00,,,0.00,weatherlink.com 1.10,2013-11-03 09:05:00,
2013-11-03 02:20:00,33.6,18.0,30.02,North,349,0.0,1.0,53,0.00,,,0.00,weatherlink.com 1.10,2013-11-03 09:20:00,
2013-11-03 02:35:00,32.8,19.0,30.02,North,349,0.0,1.0,56,0.00,,,0.00,weatherlink.com 1.10,2013-11-03 09:35:00,
2013-11-03 02:50:00,35.2,18.0,30.02,WSW,258,1.0,3.0,50,0.00,,,0.00,weatherlink.com 1.10,2013-11-03 09:50:00,
2013-11-03 03:05:00,42.1,17.0,30.01,West,267,4.0,9.0,37,0.00,,,0.00,weatherlink.com 1.10,2013-11-03 10:05:00,
2013-11-03 03:20:00,42.2,17.0,30.00,SW,231,3.0,6.0,36,0.00,,,0.00,weatherlink.com 1.10,2013-11-03 10:20:00,
2013-11-03 03:35:00,41.8,17.0,30.01,WNW,286,2.0,4.0,37,0.00,,,0.00,weatherlink.com 1.10,2013-11-03 10:35:00,
2013-11-03 03:50:00,37.0,18.0,30.01,WNW,300,1.0,3.0,46,0.00,,,0.00,weatherlink.com 1.10,2013-11-03 10:50:00,
2013-11-03 04:05:00,38.8,17.0,30.01,NW,314,2.0,5.0,41,0.00,,,0.00,weatherlink.com 1.10,2013-11-03 11:05:00,
2013-11-03 04:20:00,38.9,17.0,30.01,WNW,294,3.0,3.0,41,0.00,,,0.00,weatherlink.com 1.10,2013-11-03 11:20:00,
2013-11-03 04:35:00,38.9,17.0,30.01,West,274,2.0,4.0,42,0.00,,,0.00,weatherlink.com 1.10,2013-11-03 11:35:00,
2013-11-03 04:50:00,38.9,17.0,30.01,NW,306,2.0,6.0,42,0.00,,,0.00,weatherlink.com 1.10,2013-11-03 11:50:00,
2013-11-03 05:05:00,36.2,18.0,30.00,WNW,293,2.0,4.0,47,0.00,,,0.00,weatherlink.com 1.10,2013-11-03 12:05:00,
2013-11-03 05:20:00,35.3,18.0,30.00,NW,309,0.0,2.0,49,0.00,,,0.00,weatherlink.com 1.10,2013-11-03 12:20:00,
2013-11-03 05:35:00,35.3,18.0,30.01,WNW,293,1.0,3.0,50,0.00,,,0.00,weatherlink.com 1.10,2013-11-03 12:35:00,
2013-11-03 05:50:00,34.9,18.0,30.00,NW,324,0.0,3.0,51,0.00,,,0.00,weatherlink.com 1.10,2013-11-03 12:50:00,
2013-11-03 06:05:00,33.2,18.0,30.00,NNW,346,0.0,2.0,55,0.00,,,0.00,weatherlink.com 1.10,2013-11-03 13:05:00,
2013-11-03 06:20:00,31.3,19.0,30.00,NW,318,0.0,1.0,60,0.00,,,0.00,weatherlink.com 1.10,2013-11-03 13:20:00,
2013-11-03 06:35:00,34.9,19.0,30.00,West,274,3.0,7.0,53,0.00,,,0.00,weatherlink.com 1.10,2013-11-03 13:35:00,
2013-11-03 06:50:00,38.9,20.0,30.00,WNW,293,4.0,8.0,46,0.00,,,0.00,weatherlink.com 1.10,2013-11-03 13:50:00,
2013-11-03 07:06:00,39.3,20.0,30.00,West,261,2.0,7.0,46,0.00,,,0.00,weatherlink.com 1.10,2013-11-03 14:06:00,
2013-11-03 07:21:00,38.4,20.0,30.00,NW,307,1.0,4.0,47,0.00,,,0.00,weatherlink.com 1.10,2013-11-03 14:21:00,
2013-11-03 07:36:00,39.5,20.0,30.01,WSW,250,1.0,8.0,46,0.00,,,0.00,weatherlink.com 1.10,2013-11-03 14:36:00,
2013-11-03 07:51:00,42.2,21.0,30.01,West,261,5.0,10.0,43,0.00,,,0.00,weatherlink.com 1.10,2013-11-03 14:51:00,
2013-11-03 08:06:00,43.8,21.0,30.01,WSW,243,4.0,10.0,41,0.00,,,0.00,weatherlink.com 1.10,2013-11-03 15:06:00,
2013-11-03 08:21:00,45.0,22.0,30.02,WSW,252,8.0,13.0,40,0.00,,,0.00,weatherlink.com 1.10,2013-11-03 15:21:00,
2013-11-03 08:36:00,46.1,22.0,30.02,West,264,6.0,12.0,39,0.00,,,0.00,weatherlink.com 1.10,2013-11-03 15:36:00,
2013-11-03 08:51:00,47.6,23.0,30.01,SE,141,2.0,9.0,38,0.00,,,0.00,weatherlink.com 1.10,2013-11-03 15:51:00,
2013-11-03 09:06:00,49.1,23.0,30.01,WSW,252,6.0,12.0,36,0.00,,,0.00,weatherlink.com 1.10,2013-11-03 16:06:00,
2013-11-03 09:21:00,50.5,23.0,30.01,WSW,256,4.0,13.0,34,0.00,,,0.00,weatherlink.com 1.10,2013-11-03 16:21:00,
2013-11-03 09:36:00,51.4,23.0,30.01,SW,230,10.0,13.0,33,0.00,,,0.00,weatherlink.com 1.10,2013-11-03 16:36:00,
2013-11-03 09:51:00,51.0,23.0,30.01,West,269,6.0,14.0,33,0.00,,,0.00,weatherlink.com 1.10,2013-11-03 16:51:00,
2013-11-03 10:06:00,51.9,23.0,30.01,West,263,7.0,19.0,33,0.00,,,0.00,weatherlink.com 1.10,2013-11-03 17:06:00,
2013-11-03 10:21:00,51.5,24.0,30.01,West,277,5.0,15.0,34,0.00,,,0.00,weatherlink.com 1.10,2013-11-03 17:21:00,
2013-11-03 10:36:00,52.9,24.0,30.01,West,270,11.0,19.0,32,0.00,,,0.00,weatherlink.com 1.10,2013-11-03 17:36:00,
2013-11-03 10:51:00,53.0,24.0,30.01,SW,232,15.0,19.0,33,0.00,,,0.00,weatherlink.com 1.10,2013-11-03 17:51:00,
2013-11-03 11:06:00,53.2,25.0,30.00,WSW,250,12.0,17.0,33,0.00,,,0.00,weatherlink.com 1.10,2013-11-03 18:06:00,
2013-11-03 11:21:00,53.1,25.0,30.00,SW,236,8.0,18.0,34,0.00,,,0.00,weatherlink.com 1.10,2013-11-03 18:21:00,
2013-11-03 11:36:00,53.7,26.0,30.00,SSE,165,3.0,18.0,34,0.00,,,0.00,weatherlink.com 1.10,2013-11-03 18:36:00,
2013-11-03 11:51:00,53.6,26.0,29.99,SSW,212,11.0,24.0,35,0.00,,,0.00,weatherlink.com 1.10,2013-11-03 18:51:00,
2013-11-03 12:06:00,54.1,25.0,29.98,SSW,205,7.0,18.0,33,0.00,,,0.00,weatherlink.com 1.10,2013-11-03 19:06:00,
2013-11-03 12:21:00,54.8,25.0,29.98,West,268,10.0,21.0,32,0.00,,,0.00,weatherlink.com 1.10,2013-11-03 19:21:00,
2013-11-03 12:36:00,55.5,25.0,29.97,SSW,203,10.0,16.0,31,0.00,,,0.00,weatherlink.com 1.10,2013-11-03 19:36:00,
2013-11-03 12:51:00,55.4,26.0,29.96,SE,146,5.0,17.0,32,0.00,,,0.00,weatherlink.com 1.10,2013-11-03 19:51:00,
2013-11-03 13:06:00,56.0,26.0,29.96,SSE,158,4.0,16.0,32,0.00,,,0.00,weatherlink.com 1.10,2013-11-03 20:06:00,
2013-11-03 13:21:00,56.1,26.0,29.95,SW,224,3.0,17.0,32,0.00,,,0.00,weatherlink.com 1.10,2013-11-03 20:21:00,
2013-11-03 13:36:00,56.5,26.0,29.95,SSW,212,4.0,17.0,31,0.00,,,0.00,weatherlink.com 1.10,2013-11-03 20:36:00,
2013-11-03 13:51:00,56.6,25.0,29.95,WSW,245,9.0,16.0,30,0.00,,,0.00,weatherlink.com 1.10,2013-11-03 20:51:00,
2013-11-03 14:06:00,57.1,26.0,29.94,South,191,7.0,21.0,30,0.00,,,0.00,weatherlink.com 1.10,2013-11-03 21:06:00,
2013-11-03 14:21:00,56.7,25.0,29.94,NW,305,8.0,19.0,30,0.00,,,0.00,weatherlink.com 1.10,2013-11-03 21:21:00,
2013-11-03 14:36:00,57.1,26.0,29.94,SW,228,6.0,16.0,30,0.00,,,0.00,weatherlink.com 1.10,2013-11-03 21:36:00,
2013-11-03 14:51:00,56.7,26.0,29.94,SW,218,9.0,15.0,31,0.00,,,0.00,weatherlink.com 1.10,2013-11-03 21:51:00,
2013-11-03 15:06:00,56.5,25.0,29.94,WSW,257,13.0,25.0,30,0.00,,,0.00,weatherlink.com 1.10,2013-11-03 22:06:00,
2013-11-03 15:21:00,55.8,24.0,29.94,SSW,212,17.0,24.0,29,0.00,,,0.00,weatherlink.com 1.10,2013-11-03 22:21:00,
2013-11-03 15:36:00,56.1,23.0,29.94,West,264,10.0,17.0,28,0.00,,,0.00,weatherlink.com 1.10,2013-11-03 22:36:00,
2013-11-03 15:51:00,56.0,24.0,29.94,WSW,246,16.0,17.0,29,0.00,,,0.00,weatherlink.com 1.10,2013-11-03 22:51:00,
2013-11-03 16:06:00,55.3,23.0,29.94,SSE,158,9.0,22.0,29,0.00,,,0.00,weatherlink.com 1.10,2013-11-03 23:06:00,
2013-11-03 16:21:00,55.0,24.0,29.94,WSW,240,11.0,19.0,30,0.00,,,0.00,weatherlink.com 1.10,2013-11-03 23:21:00,
2013-11-03 16:36:00,54.6,24.0,29.95,WSW,239,10.0,17.0,30,0.00,,,0.00,weatherlink.com 1.10,2013-11-03 23:36:00,
2013-11-03 16:52:00,53.9,24.0,29.95,NW,322,6.0,15.0,31,0.00,,,0.00,weatherlink.com 1.10,2013-11-03 23:52:00,
2013-11-03 17:07:00,52.8,24.0,29.95,WSW,255,8.0,14.0,33,0.00,,,0.00,weatherlink.com 1.10,2013-11-04 00:07:00,
2013-11-03 17:22:00,51.3,24.0,29.94,WNW,290,2.0,13.0,34,0.00,,,0.00,weatherlink.com 1.10,2013-11-04 00:22:00,
2013-11-03 17:37:00,50.0,23.0,29.93,West,264,5.0,9.0,35,0.00,,,0.00,weatherlink.com 1.10,2013-11-04 00:37:00,
2013-11-03 17:52:00,48.8,23.0,29.92,WSW,243,6.0,11.0,37,0.00,,,0.00,weatherlink.com 1.10,2013-11-04 00:52:00,
2013-11-03 18:07:00,48.1,23.0,29.93,West,259,3.0,11.0,37,0.00,,,0.00,weatherlink.com 1.10,2013-11-04 01:07:00,
2013-11-03 18:22:00,47.6,23.0,29.95,WSW,254,2.0,6.0,38,0.00,,,0.00,weatherlink.com 1.10,2013-11-04 01:22:00,
2013-11-03 18:37:00,46.5,23.0,29.96,North,359,1.0,2.0,39,0.00,,,0.00,weatherlink.com 1.10,2013-11-04 01:37:00,
2013-11-03 18:52:00,43.6,22.0,29.97,West,278,1.0,3.0,43,0.00,,,0.00,weatherlink.com 1.10,2013-11-04 01:52:00,
2013-11-03 19:07:00,42.0,22.0,29.97,WNW,298,0.0,1.0,46,0.00,,,0.00,weatherlink.com 1.10,2013-11-04 02:07:00,
2013-11-03 19:22:00,39.6,22.0,29.97,NNW,339,1.0,1.0,50,0.00,,,0.00,weatherlink.com 1.10,2013-11-04 02:22:00,
2013-11-03 19:37:00,38.0,22.0,29.97,NW,326,1.0,1.0,53,0.00,,,0.00,weatherlink.com 1.10,2013-11-04 02:37:00,
2013-11-03 19:52:00,36.5,22.0,29.98,North,356,1.0,1.0,55,0.00,,,0.00,weatherlink.com 1.10,2013-11-04 02:52:00,
2013-11-03 20:07:00,35.5,22.0,29.98,North,357,0.0,1.0,58,0.00,,,0.00,weatherlink.com 1.10,2013-11-04 03:07:00,
2013-11-03 20:22:00,34.3,22.0,29.98,North,354,0.0,1.0,60,0.00,,,0.00,weatherlink.com 1.10,2013-11-04 03:22:00,
2013-11-03 20:37:00,33.2,22.0,29.98,North,354,0.0,0.0,63,0.00,,,0.00,weatherlink.com 1.10,2013-11-04 03:37:00,
2013-11-03 20:52:00,32.3,22.0,29.98,North,354,0.0,1.0,65,0.00,,,0.00,weatherlink.com 1.10,2013-11-04 03:52:00,
2013-11-03 21:07:00,31.9,21.0,29.99,NNW,346,0.0,2.0,65,0.00,,,0.00,weatherlink.com 1.10,2013-11-04 04:07:00,
2013-11-03 21:22:00,31.2,21.0,29.99,WNW,285,0.0,1.0,66,0.00,,,0.00,weatherlink.com 1.10,2013-11-04 04:22:00,
2013-11-03 21:37:00,30.2,21.0,29.99,WNW,286,0.0,1.0,68,0.00,,,0.00,weatherlink.com 1.10,2013-11-04 04:37:00,
2013-11-03 21:52:00,29.7,21.0,30.00,NW,326,0.0,1.0,69,0.00,,,0.00,weatherlink.com 1.10,2013-11-04 04:52:00,
2013-11-03 22:07:00,29.4,20.0,30.00,West,281,0.0,1.0,69,0.00,,,0.00,weatherlink.com 1.10,2013-11-04 05:07:00,
2013-11-03 22:22:00,28.9,20.0,30.00,WNW,284,0.0,1.0,70,0.00,,,0.00,weatherlink.com 1.10,2013-11-04 05:22:00,
2013-11-03 22:37:00,28.2,20.0,29.99,NNW,332,0.0,1.0,71,0.00,,,0.00,weatherlink.com 1.10,2013-11-04 05:37:00,
2013-11-03 22:52:00,27.7,20.0,29.99,NW,319,0.0,1.0,73,0.00,,,0.00,weatherlink.com 1.10,2013-11-04 05:52:00,
2013-11-03 23:07:00,27.3,20.0,29.99,North,355,0.0,1.0,73,0.00,,,0.00,weatherlink.com 1.10,2013-11-04 06:07:00,
2013-11-03 23:22:00,27.1,20.0,29.99,NNW,342,0.0,1.0,74,0.00,,,0.00,weatherlink.com 1.10,2013-11-04 06:22:00,
2013-11-03 23:37:00,26.8,20.0,29.98,NW,322,0.0,2.0,74,0.00,,,0.00,weatherlink.com 1.10,2013-11-04 06:37:00,
2013-11-03 23:52:00,26.6,19.0,29.98,WNW,290,0.0,1.0,74,0.00,,,0.00,weatherlink.com 1.10,2013-11-04 06:52:00,